sensor_id;sensor_type;location;lat;lon;timestamp;P1;durP1;ratioP1;P2;durP2;ratioP2
28766;SDS011;15921;52.034;20.650;2024-02-15T00:00:51;27.42;;;12.13;;
28766;SDS011;15921;52.034;20.650;2024-02-15T00:03:18;30.65;;;13.20;;
28766;SDS011;15921;52.034;20.650;2024-02-15T00:05:44;38.35;;;13.45;;
28766;SDS011;15921;52.034;20.650;2024-02-15T00:08:11;31.98;;;13.75;;
28766;SDS011;15921;52.034;20.650;2024-02-15T00:10:37;32.50;;;12.65;;
28766;SDS011;15921;52.034;20.650;2024-02-15T00:13:03;32.28;;;13.32;;
28766;SDS011;15921;52.034;20.650;2024-02-15T00:15:31;37.22;;;14.32;;
28766;SDS011;15921;52.034;20.650;2024-02-15T00:17:57;35.60;;;13.70;;
28766;SDS011;15921;52.034;20.650;2024-02-15T00:20:22;29.58;;;12.50;;
28766;SDS011;15921;52.034;20.650;2024-02-15T00:22:48;33.92;;;13.93;;
28766;SDS011;15921;52.034;20.650;2024-02-15T00:25:15;33.97;;;13.82;;
28766;SDS011;15921;52.034;20.650;2024-02-15T00:27:41;33.03;;;14.00;;
28766;SDS011;15921;52.034;20.650;2024-02-15T00:30:08;29.55;;;12.68;;
28766;SDS011;15921;52.034;20.650;2024-02-15T00:32:34;30.33;;;13.30;;
28766;SDS011;15921;52.034;20.650;2024-02-15T00:35:01;29.48;;;13.95;;
28766;SDS011;15921;52.034;20.650;2024-02-15T00:37:31;36.20;;;13.65;;
28766;SDS011;15921;52.034;20.650;2024-02-15T00:39:57;32.58;;;13.40;;
28766;SDS011;15921;52.034;20.650;2024-02-15T00:42:22;37.75;;;15.32;;
28766;SDS011;15921;52.034;20.650;2024-02-15T00:44:48;33.67;;;14.25;;
28766;SDS011;15921;52.034;20.650;2024-02-15T00:47:14;29.50;;;12.70;;
28766;SDS011;15921;52.034;20.650;2024-02-15T00:49:43;34.80;;;13.75;;
28766;SDS011;15921;52.034;20.650;2024-02-15T00:52:09;35.55;;;13.48;;
28766;SDS011;15921;52.034;20.650;2024-02-15T00:54:35;31.05;;;13.68;;
28766;SDS011;15921;52.034;20.650;2024-02-15T00:57:01;27.73;;;13.02;;
28766;SDS011;15921;52.034;20.650;2024-02-15T00:59:26;31.38;;;13.95;;
28766;SDS011;15921;52.034;20.650;2024-02-15T01:01:52;30.48;;;14.10;;
28766;SDS011;15921;52.034;20.650;2024-02-15T01:04:18;32.88;;;13.43;;
28766;SDS011;15921;52.034;20.650;2024-02-15T01:06:44;29.80;;;12.82;;
28766;SDS011;15921;52.034;20.650;2024-02-15T01:09:10;31.58;;;13.25;;
28766;SDS011;15921;52.034;20.650;2024-02-15T01:11:38;30.33;;;13.15;;
28766;SDS011;15921;52.034;20.650;2024-02-15T01:14:03;38.60;;;13.30;;
28766;SDS011;15921;52.034;20.650;2024-02-15T01:16:29;26.92;;;12.52;;
28766;SDS011;15921;52.034;20.650;2024-02-15T01:18:55;31.02;;;12.75;;
28766;SDS011;15921;52.034;20.650;2024-02-15T01:21:21;32.28;;;13.15;;
28766;SDS011;15921;52.034;20.650;2024-02-15T01:23:47;33.55;;;13.32;;
28766;SDS011;15921;52.034;20.650;2024-02-15T01:26:13;32.70;;;13.68;;
28766;SDS011;15921;52.034;20.650;2024-02-15T01:28:39;34.58;;;12.15;;
28766;SDS011;15921;52.034;20.650;2024-02-15T01:31:08;27.17;;;11.82;;
28766;SDS011;15921;52.034;20.650;2024-02-15T01:33:36;26.33;;;12.10;;
28766;SDS011;15921;52.034;20.650;2024-02-15T01:36:02;27.90;;;12.80;;
28766;SDS011;15921;52.034;20.650;2024-02-15T01:38:29;32.28;;;12.85;;
28766;SDS011;15921;52.034;20.650;2024-02-15T01:40:54;31.27;;;13.02;;
28766;SDS011;15921;52.034;20.650;2024-02-15T01:43:20;28.67;;;12.77;;
28766;SDS011;15921;52.034;20.650;2024-02-15T01:45:46;29.13;;;13.27;;
28766;SDS011;15921;52.034;20.650;2024-02-15T01:48:14;30.27;;;12.90;;
28766;SDS011;15921;52.034;20.650;2024-02-15T01:50:41;29.70;;;12.40;;
28766;SDS011;15921;52.034;20.650;2024-02-15T01:53:08;35.42;;;13.07;;
28766;SDS011;15921;52.034;20.650;2024-02-15T01:55:35;29.25;;;12.23;;
28766;SDS011;15921;52.034;20.650;2024-02-15T01:58:02;36.05;;;12.82;;
28766;SDS011;15921;52.034;20.650;2024-02-15T02:00:29;24.58;;;11.27;;
28766;SDS011;15921;52.034;20.650;2024-02-15T02:02:56;29.15;;;12.55;;
28766;SDS011;15921;52.034;20.650;2024-02-15T02:05:27;29.17;;;12.27;;
28766;SDS011;15921;52.034;20.650;2024-02-15T02:07:54;28.52;;;11.98;;
28766;SDS011;15921;52.034;20.650;2024-02-15T02:10:24;27.50;;;11.60;;
28766;SDS011;15921;52.034;20.650;2024-02-15T02:12:52;27.00;;;11.35;;
28766;SDS011;15921;52.034;20.650;2024-02-15T02:15:18;30.42;;;12.02;;
28766;SDS011;15921;52.034;20.650;2024-02-15T02:17:51;30.50;;;12.27;;
28766;SDS011;15921;52.034;20.650;2024-02-15T02:20:17;28.38;;;12.43;;
28766;SDS011;15921;52.034;20.650;2024-02-15T02:22:44;28.92;;;10.70;;
28766;SDS011;15921;52.034;20.650;2024-02-15T02:25:13;31.20;;;12.73;;
28766;SDS011;15921;52.034;20.650;2024-02-15T02:27:39;26.42;;;11.55;;
28766;SDS011;15921;52.034;20.650;2024-02-15T02:30:14;28.73;;;11.60;;
28766;SDS011;15921;52.034;20.650;2024-02-15T02:32:44;36.22;;;12.63;;
28766;SDS011;15921;52.034;20.650;2024-02-15T02:35:11;28.90;;;12.23;;
28766;SDS011;15921;52.034;20.650;2024-02-15T02:37:40;28.30;;;11.63;;
28766;SDS011;15921;52.034;20.650;2024-02-15T02:40:08;33.15;;;11.73;;
28766;SDS011;15921;52.034;20.650;2024-02-15T02:45:40;28.65;;;12.07;;
28766;SDS011;15921;52.034;20.650;2024-02-15T02:48:06;27.17;;;11.98;;
28766;SDS011;15921;52.034;20.650;2024-02-15T02:50:32;25.42;;;11.60;;
28766;SDS011;15921;52.034;20.650;2024-02-15T02:52:58;30.40;;;12.77;;
28766;SDS011;15921;52.034;20.650;2024-02-15T02:55:24;32.72;;;12.65;;
28766;SDS011;15921;52.034;20.650;2024-02-15T02:57:52;28.55;;;12.32;;
28766;SDS011;15921;52.034;20.650;2024-02-15T03:00:20;27.70;;;11.32;;
28766;SDS011;15921;52.034;20.650;2024-02-15T03:02:46;26.02;;;11.68;;
28766;SDS011;15921;52.034;20.650;2024-02-15T03:05:12;27.75;;;11.68;;
28766;SDS011;15921;52.034;20.650;2024-02-15T03:07:39;27.52;;;12.75;;
28766;SDS011;15921;52.034;20.650;2024-02-15T03:10:06;27.67;;;11.80;;
28766;SDS011;15921;52.034;20.650;2024-02-15T03:12:35;30.67;;;13.05;;
28766;SDS011;15921;52.034;20.650;2024-02-15T03:15:07;23.98;;;11.48;;
28766;SDS011;15921;52.034;20.650;2024-02-15T03:17:43;32.22;;;12.27;;
28766;SDS011;15921;52.034;20.650;2024-02-15T03:20:10;23.55;;;11.35;;
28766;SDS011;15921;52.034;20.650;2024-02-15T03:22:38;31.42;;;12.68;;
28766;SDS011;15921;52.034;20.650;2024-02-15T03:25:04;29.40;;;11.68;;
28766;SDS011;15921;52.034;20.650;2024-02-15T03:27:35;25.80;;;12.30;;
28766;SDS011;15921;52.034;20.650;2024-02-15T03:30:02;32.75;;;12.80;;
28766;SDS011;15921;52.034;20.650;2024-02-15T03:32:29;31.98;;;12.73;;
28766;SDS011;15921;52.034;20.650;2024-02-15T03:34:55;35.08;;;12.07;;
28766;SDS011;15921;52.034;20.650;2024-02-15T03:37:21;26.05;;;11.43;;
28766;SDS011;15921;52.034;20.650;2024-02-15T03:39:46;31.88;;;12.63;;
28766;SDS011;15921;52.034;20.650;2024-02-15T03:42:12;26.23;;;12.40;;
28766;SDS011;15921;52.034;20.650;2024-02-15T03:44:38;31.98;;;12.63;;
28766;SDS011;15921;52.034;20.650;2024-02-15T03:47:06;26.50;;;12.68;;
28766;SDS011;15921;52.034;20.650;2024-02-15T03:49:32;26.60;;;12.93;;
28766;SDS011;15921;52.034;20.650;2024-02-15T03:51:58;28.63;;;13.18;;
28766;SDS011;15921;52.034;20.650;2024-02-15T03:54:27;29.38;;;12.73;;
28766;SDS011;15921;52.034;20.650;2024-02-15T03:56:56;26.42;;;12.65;;
28766;SDS011;15921;52.034;20.650;2024-02-15T03:59:22;29.52;;;12.90;;
28766;SDS011;15921;52.034;20.650;2024-02-15T04:01:55;31.92;;;12.60;;
28766;SDS011;15921;52.034;20.650;2024-02-15T04:04:22;29.42;;;12.95;;
28766;SDS011;15921;52.034;20.650;2024-02-15T04:06:51;31.38;;;13.48;;
28766;SDS011;15921;52.034;20.650;2024-02-15T04:09:17;34.72;;;13.65;;
28766;SDS011;15921;52.034;20.650;2024-02-15T04:11:45;29.98;;;13.05;;
28766;SDS011;15921;52.034;20.650;2024-02-15T04:14:15;33.65;;;13.27;;
28766;SDS011;15921;52.034;20.650;2024-02-15T04:16:43;33.42;;;13.50;;
28766;SDS011;15921;52.034;20.650;2024-02-15T04:19:10;34.40;;;13.95;;
28766;SDS011;15921;52.034;20.650;2024-02-15T04:21:36;31.90;;;13.35;;
28766;SDS011;15921;52.034;20.650;2024-02-15T04:24:02;34.67;;;13.57;;
28766;SDS011;15921;52.034;20.650;2024-02-15T04:26:28;34.72;;;13.27;;
28766;SDS011;15921;52.034;20.650;2024-02-15T04:28:55;34.70;;;15.07;;
28766;SDS011;15921;52.034;20.650;2024-02-15T04:31:21;31.17;;;14.18;;
28766;SDS011;15921;52.034;20.650;2024-02-15T04:33:52;37.38;;;14.98;;
28766;SDS011;15921;52.034;20.650;2024-02-15T04:36:18;30.15;;;13.98;;
28766;SDS011;15921;52.034;20.650;2024-02-15T04:38:49;33.90;;;14.45;;
28766;SDS011;15921;52.034;20.650;2024-02-15T04:41:15;32.40;;;14.88;;
28766;SDS011;15921;52.034;20.650;2024-02-15T04:43:48;39.75;;;16.83;;
28766;SDS011;15921;52.034;20.650;2024-02-15T04:46:17;36.30;;;15.55;;
28766;SDS011;15921;52.034;20.650;2024-02-15T04:48:46;30.52;;;14.80;;
28766;SDS011;15921;52.034;20.650;2024-02-15T04:51:14;34.55;;;15.60;;
28766;SDS011;15921;52.034;20.650;2024-02-15T04:53:42;36.33;;;15.73;;
28766;SDS011;15921;52.034;20.650;2024-02-15T04:56:08;36.50;;;15.82;;
28766;SDS011;15921;52.034;20.650;2024-02-15T04:58:42;36.40;;;15.73;;
28766;SDS011;15921;52.034;20.650;2024-02-15T05:01:15;34.58;;;15.90;;
28766;SDS011;15921;52.034;20.650;2024-02-15T05:03:45;35.60;;;16.30;;
28766;SDS011;15921;52.034;20.650;2024-02-15T05:06:11;40.45;;;16.30;;
28766;SDS011;15921;52.034;20.650;2024-02-15T05:08:39;38.58;;;16.30;;
28766;SDS011;15921;52.034;20.650;2024-02-15T05:11:11;42.38;;;16.75;;
28766;SDS011;15921;52.034;20.650;2024-02-15T05:13:45;41.00;;;16.92;;
28766;SDS011;15921;52.034;20.650;2024-02-15T05:16:12;36.88;;;17.10;;
28766;SDS011;15921;52.034;20.650;2024-02-15T05:18:37;34.05;;;15.82;;
28766;SDS011;15921;52.034;20.650;2024-02-15T05:21:05;35.33;;;17.30;;
28766;SDS011;15921;52.034;20.650;2024-02-15T05:23:35;38.15;;;16.85;;
28766;SDS011;15921;52.034;20.650;2024-02-15T05:26:02;41.83;;;17.35;;
28766;SDS011;15921;52.034;20.650;2024-02-15T05:28:28;43.42;;;17.13;;
28766;SDS011;15921;52.034;20.650;2024-02-15T05:31:11;34.42;;;16.90;;
28766;SDS011;15921;52.034;20.650;2024-02-15T05:33:37;39.22;;;18.15;;
28766;SDS011;15921;52.034;20.650;2024-02-15T05:36:09;39.15;;;18.23;;
28766;SDS011;15921;52.034;20.650;2024-02-15T05:38:35;41.42;;;18.17;;
28766;SDS011;15921;52.034;20.650;2024-02-15T05:41:01;43.33;;;18.20;;
28766;SDS011;15921;52.034;20.650;2024-02-15T05:43:28;42.60;;;17.83;;
28766;SDS011;15921;52.034;20.650;2024-02-15T05:45:55;44.22;;;17.63;;
28766;SDS011;15921;52.034;20.650;2024-02-15T05:48:23;40.20;;;18.30;;
28766;SDS011;15921;52.034;20.650;2024-02-15T05:50:48;46.67;;;19.75;;
28766;SDS011;15921;52.034;20.650;2024-02-15T05:53:14;41.80;;;18.35;;
28766;SDS011;15921;52.034;20.650;2024-02-15T05:55:40;39.70;;;18.15;;
28766;SDS011;15921;52.034;20.650;2024-02-15T05:58:09;44.17;;;18.90;;
28766;SDS011;15921;52.034;20.650;2024-02-15T06:00:36;46.67;;;19.88;;
28766;SDS011;15921;52.034;20.650;2024-02-15T06:03:04;46.70;;;20.20;;
28766;SDS011;15921;52.034;20.650;2024-02-15T06:05:31;43.25;;;17.92;;
28766;SDS011;15921;52.034;20.650;2024-02-15T06:08:00;44.05;;;20.27;;
28766;SDS011;15921;52.034;20.650;2024-02-15T06:10:26;44.03;;;20.08;;
28766;SDS011;15921;52.034;20.650;2024-02-15T06:12:52;42.17;;;20.33;;
28766;SDS011;15921;52.034;20.650;2024-02-15T06:15:17;45.60;;;21.83;;
28766;SDS011;15921;52.034;20.650;2024-02-15T06:17:44;48.20;;;21.00;;
28766;SDS011;15921;52.034;20.650;2024-02-15T06:20:13;46.72;;;22.42;;
28766;SDS011;15921;52.034;20.650;2024-02-15T06:22:46;45.83;;;21.88;;
28766;SDS011;15921;52.034;20.650;2024-02-15T06:25:12;48.90;;;22.77;;
28766;SDS011;15921;52.034;20.650;2024-02-15T06:27:40;49.50;;;21.77;;
28766;SDS011;15921;52.034;20.650;2024-02-15T06:30:10;53.88;;;23.23;;
28766;SDS011;15921;52.034;20.650;2024-02-15T06:32:56;56.15;;;22.92;;
28766;SDS011;15921;52.034;20.650;2024-02-15T06:35:41;48.75;;;23.27;;
28766;SDS011;15921;52.034;20.650;2024-02-15T06:38:26;48.70;;;24.00;;
28766;SDS011;15921;52.034;20.650;2024-02-15T06:41:10;60.88;;;26.23;;
28766;SDS011;15921;52.034;20.650;2024-02-15T06:43:36;56.63;;;26.33;;
28766;SDS011;15921;52.034;20.650;2024-02-15T06:46:05;56.78;;;25.70;;
28766;SDS011;15921;52.034;20.650;2024-02-15T06:48:32;55.13;;;25.90;;
28766;SDS011;15921;52.034;20.650;2024-02-15T06:50:57;58.25;;;25.20;;
28766;SDS011;15921;52.034;20.650;2024-02-15T06:53:23;51.60;;;24.85;;
28766;SDS011;15921;52.034;20.650;2024-02-15T06:55:49;55.15;;;24.02;;
28766;SDS011;15921;52.034;20.650;2024-02-15T06:58:16;57.13;;;25.83;;
28766;SDS011;15921;52.034;20.650;2024-02-15T07:00:42;55.22;;;26.40;;
28766;SDS011;15921;52.034;20.650;2024-02-15T07:03:09;55.53;;;24.45;;
28766;SDS011;15921;52.034;20.650;2024-02-15T07:05:36;49.90;;;23.42;;
28766;SDS011;15921;52.034;20.650;2024-02-15T07:08:04;54.53;;;25.00;;
28766;SDS011;15921;52.034;20.650;2024-02-15T07:10:30;51.67;;;24.77;;
28766;SDS011;15921;52.034;20.650;2024-02-15T07:12:57;49.85;;;24.02;;
28766;SDS011;15921;52.034;20.650;2024-02-15T07:15:22;54.08;;;23.58;;
28766;SDS011;15921;52.034;20.650;2024-02-15T07:17:48;57.47;;;25.52;;
28766;SDS011;15921;52.034;20.650;2024-02-15T07:20:15;54.17;;;24.73;;
28766;SDS011;15921;52.034;20.650;2024-02-15T07:22:45;55.90;;;23.60;;
28766;SDS011;15921;52.034;20.650;2024-02-15T07:25:11;56.35;;;24.80;;
28766;SDS011;15921;52.034;20.650;2024-02-15T07:27:37;58.58;;;24.05;;
28766;SDS011;15921;52.034;20.650;2024-02-15T07:30:03;51.60;;;23.25;;
28766;SDS011;15921;52.034;20.650;2024-02-15T07:32:31;53.88;;;23.65;;
28766;SDS011;15921;52.034;20.650;2024-02-15T07:35:00;48.28;;;23.20;;
28766;SDS011;15921;52.034;20.650;2024-02-15T07:37:26;48.13;;;21.55;;
28766;SDS011;15921;52.034;20.650;2024-02-15T07:39:52;41.70;;;20.88;;
28766;SDS011;15921;52.034;20.650;2024-02-15T07:42:18;51.83;;;23.23;;
28766;SDS011;15921;52.034;20.650;2024-02-15T07:44:43;43.05;;;21.92;;
28766;SDS011;15921;52.034;20.650;2024-02-15T07:47:09;50.65;;;22.00;;
28766;SDS011;15921;52.034;20.650;2024-02-15T07:49:38;52.67;;;22.65;;
28766;SDS011;15921;52.034;20.650;2024-02-15T07:52:04;47.92;;;22.63;;
28766;SDS011;15921;52.034;20.650;2024-02-15T07:54:30;51.28;;;22.58;;
28766;SDS011;15921;52.034;20.650;2024-02-15T07:56:58;48.00;;;19.60;;
28766;SDS011;15921;52.034;20.650;2024-02-15T07:59:24;54.75;;;22.05;;
28766;SDS011;15921;52.034;20.650;2024-02-15T08:01:49;51.60;;;23.30;;
28766;SDS011;15921;52.034;20.650;2024-02-15T08:04:16;50.10;;;21.58;;
28766;SDS011;15921;52.034;20.650;2024-02-15T08:06:46;51.53;;;22.58;;
28766;SDS011;15921;52.034;20.650;2024-02-15T08:09:14;48.03;;;22.25;;
28766;SDS011;15921;52.034;20.650;2024-02-15T08:11:43;52.65;;;22.75;;
28766;SDS011;15921;52.034;20.650;2024-02-15T08:14:09;44.70;;;22.73;;
28766;SDS011;15921;52.034;20.650;2024-02-15T08:16:36;52.42;;;22.30;;
28766;SDS011;15921;52.034;20.650;2024-02-15T08:19:05;48.92;;;22.52;;
28766;SDS011;15921;52.034;20.650;2024-02-15T08:21:32;51.40;;;23.00;;
28766;SDS011;15921;52.034;20.650;2024-02-15T08:24:00;51.22;;;22.77;;
28766;SDS011;15921;52.034;20.650;2024-02-15T08:26:33;40.00;;;21.08;;
28766;SDS011;15921;52.034;20.650;2024-02-15T08:29:03;42.45;;;21.95;;
28766;SDS011;15921;52.034;20.650;2024-02-15T08:31:29;43.67;;;22.13;;
28766;SDS011;15921;52.034;20.650;2024-02-15T08:33:59;50.10;;;23.63;;
28766;SDS011;15921;52.034;20.650;2024-02-15T08:36:26;46.50;;;22.33;;
28766;SDS011;15921;52.034;20.650;2024-02-15T08:38:52;46.78;;;21.55;;
28766;SDS011;15921;52.034;20.650;2024-02-15T08:41:19;46.53;;;21.88;;
28766;SDS011;15921;52.034;20.650;2024-02-15T08:43:46;50.83;;;22.90;;
28766;SDS011;15921;52.034;20.650;2024-02-15T08:46:13;47.55;;;23.92;;
28766;SDS011;15921;52.034;20.650;2024-02-15T08:48:39;49.95;;;22.58;;
28766;SDS011;15921;52.034;20.650;2024-02-15T08:51:05;50.30;;;23.55;;
28766;SDS011;15921;52.034;20.650;2024-02-15T08:53:34;46.08;;;22.85;;
28766;SDS011;15921;52.034;20.650;2024-02-15T08:56:01;50.60;;;24.40;;
28766;SDS011;15921;52.034;20.650;2024-02-15T08:58:28;49.15;;;24.13;;
28766;SDS011;15921;52.034;20.650;2024-02-15T09:00:55;50.20;;;23.80;;
28766;SDS011;15921;52.034;20.650;2024-02-15T09:03:21;47.42;;;24.02;;
28766;SDS011;15921;52.034;20.650;2024-02-15T09:05:47;52.55;;;24.63;;
28766;SDS011;15921;52.034;20.650;2024-02-15T09:08:13;49.65;;;26.40;;
28766;SDS011;15921;52.034;20.650;2024-02-15T09:10:40;58.00;;;24.63;;
28766;SDS011;15921;52.034;20.650;2024-02-15T09:13:07;48.33;;;24.85;;
28766;SDS011;15921;52.034;20.650;2024-02-15T09:15:33;47.97;;;24.45;;
28766;SDS011;15921;52.034;20.650;2024-02-15T09:18:00;61.45;;;27.83;;
28766;SDS011;15921;52.034;20.650;2024-02-15T09:20:26;49.50;;;25.45;;
28766;SDS011;15921;52.034;20.650;2024-02-15T09:22:54;53.08;;;26.33;;
28766;SDS011;15921;52.034;20.650;2024-02-15T09:25:21;59.15;;;25.08;;
28766;SDS011;15921;52.034;20.650;2024-02-15T09:30:19;53.38;;;23.63;;
28766;SDS011;15921;52.034;20.650;2024-02-15T09:32:45;54.88;;;24.88;;
28766;SDS011;15921;52.034;20.650;2024-02-15T09:35:11;50.47;;;24.63;;
28766;SDS011;15921;52.034;20.650;2024-02-15T09:37:38;43.05;;;23.33;;
28766;SDS011;15921;52.034;20.650;2024-02-15T09:40:11;54.83;;;24.80;;
28766;SDS011;15921;52.034;20.650;2024-02-15T09:42:40;56.08;;;25.42;;
28766;SDS011;15921;52.034;20.650;2024-02-15T09:45:06;50.85;;;24.25;;
28766;SDS011;15921;52.034;20.650;2024-02-15T09:47:36;57.95;;;26.02;;
28766;SDS011;15921;52.034;20.650;2024-02-15T09:50:09;55.40;;;24.63;;
28766;SDS011;15921;52.034;20.650;2024-02-15T09:52:40;55.10;;;25.42;;
28766;SDS011;15921;52.034;20.650;2024-02-15T09:55:08;55.05;;;25.92;;
28766;SDS011;15921;52.034;20.650;2024-02-15T09:57:38;46.70;;;23.10;;
28766;SDS011;15921;52.034;20.650;2024-02-15T10:00:04;52.25;;;23.80;;
28766;SDS011;15921;52.034;20.650;2024-02-15T10:02:33;49.95;;;25.02;;
28766;SDS011;15921;52.034;20.650;2024-02-15T10:05:01;54.38;;;24.08;;
28766;SDS011;15921;52.034;20.650;2024-02-15T10:07:27;50.85;;;24.10;;
28766;SDS011;15921;52.034;20.650;2024-02-15T10:09:53;48.75;;;23.13;;
28766;SDS011;15921;52.034;20.650;2024-02-15T10:12:19;44.40;;;23.38;;
28766;SDS011;15921;52.034;20.650;2024-02-15T10:17:18;52.60;;;24.05;;
28766;SDS011;15921;52.034;20.650;2024-02-15T10:19:45;45.80;;;23.60;;
28766;SDS011;15921;52.034;20.650;2024-02-15T10:22:28;47.47;;;23.95;;
28766;SDS011;15921;52.034;20.650;2024-02-15T10:25:04;44.55;;;23.75;;
28766;SDS011;15921;52.034;20.650;2024-02-15T10:27:41;46.25;;;25.13;;
28766;SDS011;15921;52.034;20.650;2024-02-15T10:30:14;49.25;;;23.25;;
28766;SDS011;15921;52.034;20.650;2024-02-15T10:32:41;59.28;;;23.15;;
28766;SDS011;15921;52.034;20.650;2024-02-15T10:35:07;50.10;;;23.23;;
28766;SDS011;15921;52.034;20.650;2024-02-15T10:37:32;43.60;;;21.63;;
28766;SDS011;15921;52.034;20.650;2024-02-15T10:40:04;45.90;;;23.65;;
28766;SDS011;15921;52.034;20.650;2024-02-15T10:42:32;50.22;;;23.65;;
28766;SDS011;15921;52.034;20.650;2024-02-15T10:45:04;45.97;;;22.27;;
28766;SDS011;15921;52.034;20.650;2024-02-15T10:47:35;47.33;;;24.38;;
28766;SDS011;15921;52.034;20.650;2024-02-15T10:50:02;46.22;;;23.10;;
28766;SDS011;15921;52.034;20.650;2024-02-15T10:52:30;46.63;;;23.58;;
28766;SDS011;15921;52.034;20.650;2024-02-15T10:55:04;46.47;;;23.50;;
28766;SDS011;15921;52.034;20.650;2024-02-15T10:57:34;49.20;;;22.98;;
28766;SDS011;15921;52.034;20.650;2024-02-15T11:00:05;46.80;;;23.00;;
28766;SDS011;15921;52.034;20.650;2024-02-15T11:02:42;48.95;;;22.73;;
28766;SDS011;15921;52.034;20.650;2024-02-15T11:05:13;42.30;;;21.15;;
28766;SDS011;15921;52.034;20.650;2024-02-15T11:07:46;43.53;;;20.52;;
28766;SDS011;15921;52.034;20.650;2024-02-15T11:10:11;42.67;;;20.98;;
28766;SDS011;15921;52.034;20.650;2024-02-15T11:12:42;41.72;;;22.40;;
28766;SDS011;15921;52.034;20.650;2024-02-15T11:15:09;45.08;;;22.92;;
28766;SDS011;15921;52.034;20.650;2024-02-15T11:20:02;41.47;;;20.35;;
28766;SDS011;15921;52.034;20.650;2024-02-15T11:22:34;47.08;;;22.70;;
28766;SDS011;15921;52.034;20.650;2024-02-15T11:25:06;47.63;;;22.20;;
28766;SDS011;15921;52.034;20.650;2024-02-15T11:27:36;39.33;;;21.85;;
28766;SDS011;15921;52.034;20.650;2024-02-15T11:30:03;46.65;;;22.23;;
28766;SDS011;15921;52.034;20.650;2024-02-15T11:32:46;44.25;;;21.95;;
28766;SDS011;15921;52.034;20.650;2024-02-15T11:40:17;44.95;;;22.20;;
28766;SDS011;15921;52.034;20.650;2024-02-15T11:42:50;47.83;;;23.58;;
28766;SDS011;15921;52.034;20.650;2024-02-15T11:45:19;43.42;;;22.30;;
28766;SDS011;15921;52.034;20.650;2024-02-15T11:47:49;44.28;;;23.35;;
28766;SDS011;15921;52.034;20.650;2024-02-15T11:50:17;47.95;;;24.13;;
28766;SDS011;15921;52.034;20.650;2024-02-15T11:52:44;44.45;;;22.67;;
28766;SDS011;15921;52.034;20.650;2024-02-15T11:55:11;41.22;;;21.95;;
28766;SDS011;15921;52.034;20.650;2024-02-15T11:57:41;41.13;;;22.15;;
28766;SDS011;15921;52.034;20.650;2024-02-15T12:00:21;44.20;;;22.33;;
28766;SDS011;15921;52.034;20.650;2024-02-15T12:03:09;44.35;;;23.48;;
28766;SDS011;15921;52.034;20.650;2024-02-15T12:05:56;49.67;;;24.00;;
28766;SDS011;15921;52.034;20.650;2024-02-15T12:08:43;47.90;;;22.52;;
28766;SDS011;15921;52.034;20.650;2024-02-15T12:11:29;45.00;;;23.13;;
28766;SDS011;15921;52.034;20.650;2024-02-15T12:14:14;39.72;;;22.42;;
28766;SDS011;15921;52.034;20.650;2024-02-15T12:19:52;42.88;;;21.30;;
28766;SDS011;15921;52.034;20.650;2024-02-15T12:22:21;42.17;;;21.15;;
28766;SDS011;15921;52.034;20.650;2024-02-15T12:27:21;45.47;;;22.50;;
28766;SDS011;15921;52.034;20.650;2024-02-15T12:30:05;45.13;;;22.42;;
28766;SDS011;15921;52.034;20.650;2024-02-15T12:32:32;45.78;;;23.40;;
28766;SDS011;15921;52.034;20.650;2024-02-15T12:35:11;51.15;;;21.30;;
28766;SDS011;15921;52.034;20.650;2024-02-15T12:37:42;45.72;;;21.08;;
28766;SDS011;15921;52.034;20.650;2024-02-15T12:40:18;41.53;;;20.17;;
28766;SDS011;15921;52.034;20.650;2024-02-15T12:42:44;46.67;;;20.48;;
28766;SDS011;15921;52.034;20.650;2024-02-15T12:45:17;38.83;;;18.90;;
28766;SDS011;15921;52.034;20.650;2024-02-15T12:47:46;43.13;;;18.40;;
28766;SDS011;15921;52.034;20.650;2024-02-15T12:50:15;39.10;;;20.10;;
28766;SDS011;15921;52.034;20.650;2024-02-15T12:52:42;38.58;;;19.40;;
28766;SDS011;15921;52.034;20.650;2024-02-15T12:57:38;31.42;;;16.83;;
28766;SDS011;15921;52.034;20.650;2024-02-15T13:00:09;37.17;;;17.05;;
28766;SDS011;15921;52.034;20.650;2024-02-15T13:02:38;31.33;;;17.15;;
28766;SDS011;15921;52.034;20.650;2024-02-15T13:05:05;38.13;;;18.38;;
28766;SDS011;15921;52.034;20.650;2024-02-15T13:07:35;37.50;;;17.83;;
28766;SDS011;15921;52.034;20.650;2024-02-15T13:10:02;41.33;;;19.13;;
28766;SDS011;15921;52.034;20.650;2024-02-15T13:12:32;32.78;;;17.10;;
28766;SDS011;15921;52.034;20.650;2024-02-15T13:15:00;38.72;;;19.98;;
28766;SDS011;15921;52.034;20.650;2024-02-15T13:17:31;37.28;;;18.77;;
28766;SDS011;15921;52.034;20.650;2024-02-15T13:19:59;37.25;;;18.77;;
28766;SDS011;15921;52.034;20.650;2024-02-15T13:22:35;34.83;;;18.13;;
28766;SDS011;15921;52.034;20.650;2024-02-15T13:25:03;38.60;;;18.30;;
28766;SDS011;15921;52.034;20.650;2024-02-15T13:27:35;38.28;;;18.83;;
28766;SDS011;15921;52.034;20.650;2024-02-15T13:30:03;41.15;;;19.45;;
28766;SDS011;15921;52.034;20.650;2024-02-15T13:32:33;35.42;;;16.83;;
28766;SDS011;15921;52.034;20.650;2024-02-15T13:35:11;36.30;;;17.67;;
28766;SDS011;15921;52.034;20.650;2024-02-15T13:40:25;34.20;;;17.15;;
28766;SDS011;15921;52.034;20.650;2024-02-15T13:42:56;39.60;;;18.25;;
28766;SDS011;15921;52.034;20.650;2024-02-15T13:48:05;35.17;;;18.17;;
28766;SDS011;15921;52.034;20.650;2024-02-15T13:50:34;39.15;;;17.60;;
28766;SDS011;15921;52.034;20.650;2024-02-15T13:53:00;36.63;;;18.38;;
28766;SDS011;15921;52.034;20.650;2024-02-15T13:55:27;32.92;;;17.30;;
28766;SDS011;15921;52.034;20.650;2024-02-15T13:57:53;34.47;;;17.90;;
28766;SDS011;15921;52.034;20.650;2024-02-15T14:00:22;32.80;;;17.20;;
28766;SDS011;15921;52.034;20.650;2024-02-15T14:02:55;36.47;;;17.75;;
28766;SDS011;15921;52.034;20.650;2024-02-15T14:05:22;36.63;;;17.85;;
28766;SDS011;15921;52.034;20.650;2024-02-15T14:07:52;31.30;;;16.90;;
28766;SDS011;15921;52.034;20.650;2024-02-15T14:10:23;32.95;;;16.42;;
28766;SDS011;15921;52.034;20.650;2024-02-15T14:12:50;39.72;;;17.95;;
28766;SDS011;15921;52.034;20.650;2024-02-15T14:15:18;42.90;;;18.02;;
28766;SDS011;15921;52.034;20.650;2024-02-15T14:17:44;38.63;;;18.13;;
28766;SDS011;15921;52.034;20.650;2024-02-15T14:20:10;32.30;;;16.40;;
28766;SDS011;15921;52.034;20.650;2024-02-15T14:22:40;30.50;;;15.20;;
28766;SDS011;15921;52.034;20.650;2024-02-15T14:25:07;29.13;;;14.32;;
28766;SDS011;15921;52.034;20.650;2024-02-15T14:27:33;24.92;;;12.30;;
28766;SDS011;15921;52.034;20.650;2024-02-15T14:29:59;23.85;;;12.30;;
28766;SDS011;15921;52.034;20.650;2024-02-15T14:32:44;22.17;;;11.30;;
28766;SDS011;15921;52.034;20.650;2024-02-15T14:37:53;22.75;;;11.05;;
28766;SDS011;15921;52.034;20.650;2024-02-15T14:40:21;22.27;;;12.40;;
28766;SDS011;15921;52.034;20.650;2024-02-15T14:42:46;23.65;;;11.57;;
28766;SDS011;15921;52.034;20.650;2024-02-15T14:45:12;26.65;;;11.90;;
28766;SDS011;15921;52.034;20.650;2024-02-15T14:47:38;22.90;;;11.32;;